Ocean City, MD

12:21 AM EST on December 03, 2016 (GMT -0500)
Long Neck, DE | | Change Station

Elev 0 ft 38.62 °N, 75.11 °W | Updated 348 days ago

Clear
Clear
38 °F
Feels Like 29 °F
N
13
Wind Variable Wind from WNW
Gusts 21 mph

Today
High -- | Low -- °F
--% Chance of Precip.
Yesterday
High -- | Low -- °F
Precip. -- in
Pressure 30.08 in
Visibility 10.0 miles
Clouds Scattered Clouds 6000 ft
Windchill 29 °F
Dew Point 30 °F
Humidity 72%
Rainfall in
Snow Depth Not available.
7:00 AM 4:39 PM
Waxing Crescent, 12% visible
METAR KOXB 030453Z AUTO 27005KT 10SM SCT060 04/M02 A3008 RMK AO2 SLP185 T00441022 401111006
Pressure 30.08 in
Visibility 10.0 miles
Clouds Scattered Clouds 6000 ft
Windchill 29 °F
Dew Point 30 °F
Humidity 72%
Rainfall in
Snow Depth Not available.
7:00 AM 4:39 PM
Waxing Crescent, 12% visible
METAR KOXB 030453Z AUTO 27005KT 10SM SCT060 04/M02 A3008 RMK AO2 SLP185 T00441022 401111006

10-Day Weather Forecast

Almanac

Astronomy

Dec. 03, 2016 Rise Set
Actual Time
Civil Twilight
Nautical Twilight
Astronomical Twilight
Moon
Length of Visible Light
Length of Day
Tomorrow will be .
, % of the Moon is Illuminated

Today's Extremes

State Highs State Lows

Community

WunderPhotos

Upload Photos

1,955,413 photos uploaded!

WunderBlog® & News

Nearby

Air Quality

  Air Quality AQ Index Pollutant
Not available.

Snow Depth

Station Depth Elevation

Earthquake Activity

City Distance Mag. Time & Date
Minimum magnitude displayed is 2.5.

Coastal Water Temperatures

Place Temperature

Stations

Nearby Weather Stations

Station Location Temp. Windchill Dew Point Humidity Wind Precip. Elev Updated Type
                   

Watches & Warnings

There are currently no watches in effect.